Time;durP1;ratioP1;P1;durP2;ratioP2;P2;SDS_P1;SDS_P2;PMS_P1;PMS_P2;Temp;Humidity;BMP_temperature;BMP_pressure;BME280_temperature;BME280_humidity;BME280_pressure;Samples;Min_cycle;Max_cycle;Signal;HPM_P1;HPM_P2
2022/04/27 00:02:21;;;;;;;12.13;6.00;;;7.60;1.00;;;;;;5012423;28;20208;-68
2022/04/27 00:04:48;;;;;;;12.30;5.97;;;7.60;1.00;;;;;;5011443;28;20204;-68
2022/04/27 00:07:15;;;;;;;10.10;6.10;;;7.60;1.00;;;;;;4993042;28;20539;-69
2022/04/27 00:09:42;;;;;;;11.20;5.97;;;7.60;1.00;;;;;;4992515;28;20228;-69
2022/04/27 00:12:09;;;;;;;9.63;5.93;;;7.50;1.00;;;;;;5007635;28;20211;-68
2022/04/27 00:14:39;;;;;;;12.37;5.90;;;7.50;1.00;;;;;;4999641;28;20204;-69
2022/04/27 00:17:06;;;;;;;9.17;5.93;;;7.40;1.00;;;;;;4992712;28;20213;-68
2022/04/27 00:19:33;;;;;;;12.00;5.67;;;7.30;1.00;;;;;;5003513;28;20199;-68
2022/04/27 00:21:59;;;;;;;9.00;5.80;;;7.20;1.00;;;;;;5002382;28;20202;-68
2022/04/27 00:24:26;;;;;;;12.90;5.70;;;7.20;1.00;;;;;;4973136;28;20202;-68
2022/04/27 00:26:53;;;;;;;13.90;6.27;;;7.20;1.00;;;;;;4991875;28;20326;-68
2022/04/27 00:29:20;;;;;;;13.57;6.53;;;7.20;1.00;;;;;;4992527;28;20243;-68
2022/04/27 00:31:48;;;;;;;11.97;6.10;;;7.30;1.00;;;;;;5009238;28;20617;-68
2022/04/27 00:34:15;;;;;;;8.70;6.57;;;7.20;1.00;;;;;;5011940;28;20219;-68
2022/04/27 00:36:42;;;;;;;12.83;6.00;;;7.10;1.00;;;;;;4996239;28;20204;-68
2022/04/27 00:39:09;;;;;;;11.37;6.40;;;7.00;1.00;;;;;;5006155;28;20203;-68
2022/04/27 00:41:36;;;;;;;11.67;5.80;;;7.00;57.50;;;;;;5014393;28;20208;-68
2022/04/27 00:44:03;;;;;;;12.60;6.40;;;7.00;99.90;;;;;;5002682;28;20197;-69
2022/04/27 00:46:29;;;;;;;12.67;6.40;;;7.00;89.30;;;;;;5007222;28;20654;-68
2022/04/27 00:48:58;;;;;;;11.93;5.90;;;7.00;73.20;;;;;;5015388;28;20228;-69
2022/04/27 00:51:25;;;;;;;11.03;6.10;;;7.00;99.90;;;;;;5007664;28;20222;-68
2022/04/27 00:53:53;;;;;;;10.87;5.57;;;6.90;81.40;;;;;;5013655;28;20201;-68
2022/04/27 00:56:21;;;;;;;9.43;5.87;;;7.00;99.90;;;;;;4997984;28;20236;-68
2022/04/27 00:58:48;;;;;;;13.63;6.37;;;7.00;91.60;;;;;;5007078;28;20204;-68
2022/04/27 01:01:16;;;;;;;13.40;6.13;;;7.00;59.20;;;;;;5015178;28;20270;-68
2022/04/27 01:03:42;;;;;;;10.10;5.70;;;7.00;17.60;;;;;;5004935;28;20647;-68
2022/04/27 01:06:11;;;;;;;14.33;5.93;;;6.90;29.10;;;;;;4995471;28;20216;-68
2022/04/27 01:08:38;;;;;;;10.73;6.83;;;6.80;68.70;;;;;;5007905;28;20207;-67
2022/04/27 01:11:07;;;;;;;10.97;6.43;;;6.70;99.90;;;;;;5015260;28;20207;-68
2022/04/27 01:13:34;;;;;;;12.27;6.27;;;6.70;99.90;;;;;;5007020;28;20201;-68
2022/04/27 01:16:02;;;;;;;11.40;6.23;;;6.60;99.90;;;;;;5003612;28;20290;-68
2022/04/27 01:18:29;;;;;;;10.90;6.27;;;6.70;99.90;;;;;;5009399;28;20205;-68
2022/04/27 01:20:58;;;;;;;8.53;6.33;;;6.70;99.90;;;;;;4996296;28;20251;-68
2022/04/27 01:23:24;;;;;;;12.17;6.73;;;6.80;99.90;;;;;;5014715;28;20196;-68
2022/04/27 01:25:54;;;;;;;11.17;6.47;;;6.70;99.90;;;;;;5008250;28;20208;-68
2022/04/27 01:28:22;;;;;;;9.73;6.10;;;6.70;99.90;;;;;;4975868;28;20720;-68
2022/04/27 01:30:56;;;;;;;8.70;5.90;;;6.70;99.90;;;;;;4985577;28;20672;-68
2022/04/27 01:33:23;;;;;;;9.40;6.00;;;6.60;99.90;;;;;;4995328;28;20217;-68
2022/04/27 01:35:50;;;;;;;12.07;6.40;;;6.60;99.90;;;;;;5011060;28;20228;-68
2022/04/27 01:38:18;;;;;;;10.30;6.60;;;6.60;99.90;;;;;;4997974;28;20204;-68
2022/04/27 01:40:46;;;;;;;11.77;6.47;;;6.50;99.90;;;;;;5014347;28;20196;-69
2022/04/27 01:43:15;;;;;;;10.10;6.20;;;6.60;99.90;;;;;;5008471;28;20193;-68
2022/04/27 01:45:43;;;;;;;12.23;6.83;;;6.70;99.90;;;;;;4994611;28;20205;-68
2022/04/27 01:48:11;;;;;;;14.63;6.40;;;6.70;99.90;;;;;;5013140;28;20201;-68
2022/04/27 01:50:38;;;;;;;12.03;6.87;;;6.60;99.90;;;;;;5012749;28;20694;-68
2022/04/27 01:55:51;;;;;;;9.10;6.30;;;6.50;99.90;;;;;;5003736;28;20622;-76
2022/04/27 01:58:18;;;;;;;11.90;6.17;;;6.50;99.90;;;;;;5008065;28;20204;-76
2022/04/27 02:00:46;;;;;;;10.13;6.40;;;6.40;99.90;;;;;;4996744;28;20208;-76
2022/04/27 02:03:13;;;;;;;13.40;6.90;;;6.30;99.90;;;;;;4994562;28;20255;-77
2022/04/27 02:05:40;;;;;;;12.53;6.63;;;6.20;99.90;;;;;;5010573;28;20259;-76
2022/04/27 02:08:07;;;;;;;12.27;5.93;;;6.20;99.90;;;;;;5005276;28;20207;-76
2022/04/27 02:10:34;;;;;;;12.87;6.40;;;6.30;99.90;;;;;;4994749;28;20209;-76
2022/04/27 02:13:03;;;;;;;11.77;6.60;;;6.30;99.90;;;;;;4997578;28;20673;-76
2022/04/27 02:15:30;;;;;;;14.10;6.93;;;6.20;99.90;;;;;;5000272;28;20200;-76
2022/04/27 02:17:56;;;;;;;11.20;6.53;;;6.20;99.90;;;;;;4999956;28;20202;-76
2022/04/27 02:20:23;;;;;;;12.47;6.50;;;6.30;99.90;;;;;;5013810;28;20200;-76
2022/04/27 02:22:50;;;;;;;13.40;6.33;;;6.20;99.90;;;;;;5003320;28;20249;-76
2022/04/27 02:25:18;;;;;;;13.67;6.60;;;6.10;99.90;;;;;;4994102;28;20205;-77
2022/04/27 02:27:44;;;;;;;14.57;6.83;;;6.20;99.90;;;;;;5002416;28;20258;-76
2022/04/27 02:30:14;;;;;;;12.07;6.37;;;6.10;99.90;;;;;;5013935;28;20682;-76
2022/04/27 02:32:41;;;;;;;13.63;6.30;;;6.10;99.90;;;;;;5009382;28;20204;-77
2022/04/27 02:35:09;;;;;;;12.50;7.30;;;6.10;99.90;;;;;;4982239;28;20197;-76
2022/04/27 02:37:37;;;;;;;12.40;6.23;;;6.10;99.90;;;;;;4974479;28;20205;-76
2022/04/27 02:40:05;;;;;;;11.90;6.30;;;6.10;99.90;;;;;;4974780;28;20202;-77
2022/04/27 02:42:32;;;;;;;12.97;7.00;;;6.10;99.90;;;;;;4980331;28;20670;-76
2022/04/27 02:45:00;;;;;;;12.93;6.93;;;6.10;99.90;;;;;;4993592;28;20205;-77
2022/04/27 02:47:28;;;;;;;12.10;6.70;;;6.10;99.90;;;;;;4997340;28;20560;-77
2022/04/27 02:52:39;;;;;;;14.40;6.67;;;6.00;99.90;;;;;;5001643;28;20240;-77
2022/04/27 02:55:07;;;;;;;11.70;6.57;;;5.90;99.90;;;;;;4993009;28;20211;-76
2022/04/27 02:57:34;;;;;;;12.57;6.57;;;5.70;99.90;;;;;;4974254;28;20209;-75
2022/04/27 03:00:00;;;;;;;11.67;6.73;;;5.60;99.90;;;;;;4974401;28;20221;-75
2022/04/27 03:02:29;;;;;;;9.07;6.57;;;5.70;99.90;;;;;;4992721;28;20575;-75
2022/04/27 03:04:55;;;;;;;10.83;6.50;;;5.60;99.90;;;;;;4992410;28;20212;-75
2022/04/27 03:07:22;;;;;;;10.47;7.10;;;5.60;99.90;;;;;;4993351;28;20272;-76
2022/04/27 03:09:50;;;;;;;12.27;8.43;;;5.60;99.90;;;;;;4993226;28;20221;-76
2022/04/27 03:12:17;;;;;;;12.33;7.70;;;5.70;99.90;;;;;;4993420;28;20209;-75
2022/04/27 03:14:43;;;;;;;14.30;7.90;;;5.70;99.90;;;;;;4992762;28;20209;-75
2022/04/27 03:17:10;;;;;;;12.70;7.80;;;5.80;99.90;;;;;;4993478;28;20200;-75
2022/04/27 03:19:38;;;;;;;12.47;7.57;;;5.80;99.90;;;;;;5003942;28;20572;-75
2022/04/27 03:22:06;;;;;;;15.17;7.90;;;5.80;99.90;;;;;;5012907;28;20201;-75
2022/04/27 03:24:33;;;;;;;17.43;9.40;;;5.80;99.90;;;;;;5012639;28;20204;-75
2022/04/27 03:27:00;;;;;;;19.50;9.90;;;5.70;99.90;;;;;;5013225;28;20204;-76
2022/04/27 03:29:27;;;;;;;13.60;7.90;;;5.60;99.90;;;;;;5012626;28;20212;-75
2022/04/27 03:31:54;;;;;;;11.60;7.30;;;5.40;99.90;;;;;;4996264;28;20205;-75
2022/04/27 03:34:21;;;;;;;10.83;7.23;;;5.40;99.90;;;;;;4980278;28;20210;-76
2022/04/27 03:36:49;;;;;;;14.33;7.53;;;5.50;99.90;;;;;;4986061;28;20579;-75
2022/04/27 03:39:16;;;;;;;14.97;7.63;;;5.40;99.90;;;;;;4991064;28;20217;-76
2022/04/27 03:41:43;;;;;;;14.00;8.27;;;5.40;99.90;;;;;;4991009;28;20197;-76
2022/04/27 03:44:10;;;;;;;13.27;7.93;;;5.40;99.90;;;;;;4989755;28;20609;-76
2022/04/27 03:46:37;;;;;;;16.37;9.07;;;5.30;99.90;;;;;;4990480;28;20201;-75
2022/04/27 03:49:04;;;;;;;12.93;8.37;;;5.30;99.90;;;;;;4991352;28;20201;-75
2022/04/27 03:51:30;;;;;;;17.97;8.07;;;5.30;99.90;;;;;;4992503;28;20229;-76
2022/04/27 03:53:59;;;;;;;13.53;8.60;;;5.30;99.90;;;;;;4988238;28;20211;-75
2022/04/27 03:56:26;;;;;;;14.13;7.93;;;5.30;99.90;;;;;;4987722;28;20705;-75
2022/04/27 03:58:53;;;;;;;13.37;8.20;;;5.20;99.90;;;;;;4990247;28;20291;-75
2022/04/27 04:01:20;;;;;;;17.50;9.67;;;5.30;99.90;;;;;;4990891;28;20213;-75
2022/04/27 04:03:47;;;;;;;19.03;9.30;;;5.20;99.90;;;;;;4991405;28;20212;-75
2022/04/27 04:06:14;;;;;;;15.73;8.00;;;5.20;99.90;;;;;;4988948;28;20644;-74
2022/04/27 04:08:40;;;;;;;17.83;9.00;;;5.20;99.90;;;;;;4985172;28;20208;-74
2022/04/27 04:11:11;;;;;;;14.63;8.47;;;5.20;99.90;;;;;;4990352;28;20212;-74
2022/04/27 04:13:38;;;;;;;18.60;8.87;;;5.40;99.90;;;;;;4990372;28;20233;-75
2022/04/27 04:16:06;;;;;;;15.60;8.67;;;5.40;99.90;;;;;;4991261;28;20731;-75
2022/04/27 04:18:33;;;;;;;13.83;8.60;;;5.50;99.90;;;;;;4991545;28;20212;-75
2022/04/27 04:20:59;;;;;;;14.63;8.80;;;5.70;99.90;;;;;;4994146;28;20201;-74
2022/04/27 04:23:26;;;;;;;14.70;8.13;;;5.70;99.90;;;;;;4994220;28;20200;-75
2022/04/27 04:28:38;;;;;;;12.80;8.03;;;5.70;99.90;;;;;;4991423;28;20295;-75
2022/04/27 04:31:06;;;;;;;15.53;7.80;;;5.80;99.90;;;;;;4990380;28;20221;-75
2022/04/27 04:33:33;;;;;;;13.10;7.50;;;5.90;99.90;;;;;;4993748;28;20288;-75
2022/04/27 04:36:00;;;;;;;15.30;7.70;;;6.00;99.90;;;;;;4994496;28;20681;-75
2022/04/27 04:38:27;;;;;;;14.43;7.63;;;6.20;99.90;;;;;;4992371;28;20644;-75
2022/04/27 04:40:54;;;;;;;27.90;18.80;;;6.60;99.90;;;;;;4996228;28;20201;-76
2022/04/27 04:43:21;;;;;;;15.83;9.80;;;6.80;99.90;;;;;;4994598;28;20647;-75
2022/04/27 04:45:49;;;;;;;12.70;7.87;;;6.90;1.00;;;;;;4992254;28;20212;-75
2022/04/27 04:48:16;;;;;;;15.57;8.47;;;7.00;1.00;;;;;;4993818;28;20208;-75
2022/04/27 04:50:43;;;;;;;13.43;7.73;;;6.90;1.00;;;;;;4993618;28;20587;-75
2022/04/27 04:53:10;;;;;;;13.67;8.33;;;7.20;1.00;;;;;;4993365;28;20226;-72
2022/04/27 04:55:37;;;;;;;16.80;8.60;;;7.40;1.00;;;;;;4992786;28;20252;-72
2022/04/27 04:58:04;;;;;;;13.63;8.10;;;7.30;1.00;;;;;;4994222;28;20264;-71
2022/04/27 05:00:31;;;;;;;14.03;8.03;;;7.50;1.00;;;;;;4993443;28;20213;-71
2022/04/27 05:02:59;;;;;;;13.10;7.67;;;7.90;1.00;;;;;;4992068;28;20209;-71
2022/04/27 05:05:29;;;;;;;13.60;8.20;;;8.40;1.00;;;;;;4987009;28;20284;-72
2022/04/27 05:07:56;;;;;;;12.67;7.73;;;8.40;1.00;;;;;;4992984;28;20618;-72
2022/04/27 05:10:23;;;;;;;12.43;7.57;;;8.60;45.30;;;;;;4988673;28;20229;-72
2022/04/27 05:12:50;;;;;;;12.57;7.67;;;8.70;91.40;;;;;;4992282;28;20205;-72
2022/04/27 05:15:17;;;;;;;10.40;7.10;;;9.00;1.00;;;;;;4993282;28;20279;-72
2022/04/27 05:17:44;;;;;;;10.93;7.40;;;9.60;99.90;;;;;;4993242;28;20205;-71
2022/04/27 05:20:13;;;;;;;11.87;7.17;;;9.30;99.80;;;;;;4993609;28;20629;-72
2022/04/27 05:22:40;;;;;;;11.23;7.57;;;8.90;1.00;;;;;;4992882;28;20205;-71
2022/04/27 05:25:10;;;;;;;14.93;7.03;;;8.50;99.90;;;;;;4993972;28;20257;-71
2022/04/27 05:27:38;;;;;;;10.50;7.10;;;8.20;1.00;;;;;;4992841;28;20247;-71
2022/04/27 05:32:50;;;;;;;10.57;7.23;;;8.80;99.90;;;;;;4994721;28;20219;-71
2022/04/27 05:35:18;;;;;;;15.77;8.00;;;8.50;99.90;;;;;;4990969;28;20212;-71
2022/04/27 05:37:45;;;;;;;10.97;7.47;;;8.20;1.00;;;;;;4990215;28;20259;-72
2022/04/27 05:40:13;;;;;;;10.57;7.17;;;8.60;1.00;;;;;;4991938;28;20240;-72
2022/04/27 05:42:40;;;;;;;13.00;7.90;;;8.80;1.00;;;;;;4992349;28;20245;-72
2022/04/27 05:45:08;;;;;;;11.40;7.43;;;9.00;1.00;;;;;;4991486;28;20633;-72
2022/04/27 05:47:36;;;;;;;13.07;8.10;;;9.10;1.00;;;;;;4991092;28;20659;-71
2022/04/27 05:50:04;;;;;;;14.70;7.60;;;9.50;99.90;;;;;;4994307;28;20205;-72
2022/04/27 05:52:45;;;;;;;11.83;7.87;;;9.20;99.90;;;;;;4992575;28;20702;-72
2022/04/27 05:55:12;;;;;;;14.23;7.60;;;9.20;99.90;;;;;;4991011;28;20197;-72
2022/04/27 05:57:39;;;;;;;12.77;7.67;;;10.00;1.00;;;;;;4992548;28;20256;-72
2022/04/27 06:00:07;;;;;;;15.70;8.80;;;9.50;1.00;;;;;;4992991;28;20205;-72
2022/04/27 06:02:34;;;;;;;14.40;7.77;;;9.40;99.90;;;;;;4991473;28;20263;-72
2022/04/27 06:05:01;;;;;;;10.57;7.63;;;10.20;1.00;;;;;;4993366;28;20212;-73
2022/04/27 06:07:28;;;;;;;11.60;7.73;;;10.80;99.90;;;;;;4990313;28;20260;-72
2022/04/27 06:09:56;;;;;;;11.70;7.77;;;10.30;99.90;;;;;;4992905;28;20216;-73
2022/04/27 06:12:25;;;;;;;14.30;8.33;;;9.80;99.90;;;;;;4989166;28;20225;-72
2022/04/27 06:14:52;;;;;;;11.97;8.03;;;9.50;45.70;;;;;;4990660;28;20729;-71
2022/04/27 06:17:19;;;;;;;13.10;8.33;;;9.30;19.50;;;;;;4991295;28;20267;-71
2022/04/27 06:19:46;;;;;;;13.07;7.93;;;9.30;1.00;;;;;;4992123;28;20209;-72
2022/04/27 06:22:13;;;;;;;13.70;8.17;;;9.00;28.80;;;;;;4991971;28;20205;-72
2022/04/27 06:24:40;;;;;;;13.93;8.43;;;9.00;1.00;;;;;;4989209;28;20255;-72
2022/04/27 06:27:08;;;;;;;15.70;9.50;;;8.60;99.90;;;;;;4997168;28;20209;-71
2022/04/27 06:29:35;;;;;;;14.50;8.60;;;9.60;99.90;;;;;;4991891;28;20209;-72
2022/04/27 06:32:02;;;;;;;16.10;8.53;;;10.10;1.00;;;;;;4991897;28;20229;-71
2022/04/27 06:34:29;;;;;;;15.00;9.00;;;9.50;1.00;;;;;;4990799;28;20663;-71
2022/04/27 06:36:56;;;;;;;13.70;8.60;;;10.00;1.00;;;;;;4992679;28;20710;-72
2022/04/27 06:39:23;;;;;;;14.67;9.23;;;10.50;99.90;;;;;;4988850;28;20272;-71
2022/04/27 06:41:50;;;;;;;15.20;8.93;;;11.20;1.00;;;;;;4991091;28;20213;-71
2022/04/27 06:44:19;;;;;;;16.70;8.97;;;11.90;1.00;;;;;;4988328;28;20228;-71
2022/04/27 06:46:46;;;;;;;15.83;8.97;;;11.50;36.80;;;;;;4991077;28;20212;-72
2022/04/27 06:49:13;;;;;;;16.17;8.93;;;11.60;1.00;;;;;;4989748;28;20614;-72
2022/04/27 06:51:40;;;;;;;18.33;9.10;;;11.60;1.00;;;;;;4991266;28;20761;-71
2022/04/27 06:54:07;;;;;;;15.20;8.37;;;11.40;28.20;;;;;;4991316;28;20201;-72
2022/04/27 06:56:34;;;;;;;15.90;9.07;;;11.20;1.00;;;;;;4992902;28;20263;-72
2022/04/27 06:59:01;;;;;;;16.17;9.80;;;11.40;1.00;;;;;;4993006;28;20244;-72
2022/04/27 07:01:29;;;;;;;19.97;10.30;;;11.30;1.00;;;;;;4993286;28;20252;-72
2022/04/27 07:04:00;;;;;;;15.40;9.73;;;12.00;1.00;;;;;;4993059;28;20201;-72
2022/04/27 07:06:28;;;;;;;15.07;9.10;;;12.30;57.60;;;;;;4991706;28;20205;-72
2022/04/27 07:08:56;;;;;;;15.93;9.40;;;13.20;89.20;;;;;;4992446;28;20271;-72
2022/04/27 07:11:23;;;;;;;15.93;9.37;;;12.20;91.80;;;;;;4992221;28;20221;-72
2022/04/27 07:13:50;;;;;;;17.50;9.63;;;11.90;94.60;;;;;;4992528;28;20205;-72
2022/04/27 07:16:17;;;;;;;15.13;9.87;;;11.80;99.90;;;;;;4991908;28;20619;-72
2022/04/27 07:18:45;;;;;;;13.30;8.63;;;11.60;99.70;;;;;;4993186;28;20204;-72
2022/04/27 07:21:12;;;;;;;15.80;9.80;;;11.60;99.90;;;;;;4992146;28;20259;-72
2022/04/27 07:23:39;;;;;;;16.10;9.27;;;11.50;99.90;;;;;;4992309;28;20197;-73
2022/04/27 07:26:07;;;;;;;17.30;9.50;;;11.70;99.90;;;;;;4992192;28;20623;-72
2022/04/27 07:28:35;;;;;;;16.27;9.70;;;11.80;99.90;;;;;;4992802;28;20197;-72
2022/04/27 07:31:02;;;;;;;13.27;8.87;;;12.90;98.00;;;;;;4992951;28;20217;-72
2022/04/27 07:33:29;;;;;;;15.83;9.97;;;12.10;95.70;;;;;;4993011;28;20240;-72
2022/04/27 07:35:57;;;;;;;17.50;9.20;;;12.00;99.90;;;;;;4992780;28;20209;-72
2022/04/27 07:38:25;;;;;;;15.77;9.30;;;11.70;98.30;;;;;;5000831;28;20298;-72
2022/04/27 07:40:52;;;;;;;15.83;8.87;;;11.90;99.90;;;;;;4994665;28;20213;-72
2022/04/27 07:43:19;;;;;;;17.10;9.87;;;11.90;99.00;;;;;;4992411;28;20594;-72
2022/04/27 07:45:46;;;;;;;16.60;9.90;;;11.90;99.70;;;;;;4992338;28;20209;-72
2022/04/27 07:48:13;;;;;;;15.67;9.07;;;11.50;97.40;;;;;;4992670;28;20213;-72
2022/04/27 07:50:40;;;;;;;17.90;10.60;;;11.80;96.20;;;;;;4991876;28;20618;-72
2022/04/27 07:53:08;;;;;;;15.23;9.33;;;11.50;98.30;;;;;;5001083;28;20275;-72
2022/04/27 07:55:36;;;;;;;14.93;9.37;;;11.70;99.90;;;;;;5008741;28;20247;-72
2022/04/27 07:58:03;;;;;;;16.37;10.20;;;12.00;97.50;;;;;;5011648;28;20601;-72
2022/04/27 08:00:30;;;;;;;15.37;9.37;;;11.80;92.70;;;;;;5011759;28;20212;-72
2022/04/27 08:02:58;;;;;;;19.03;9.90;;;12.00;94.10;;;;;;5011365;28;20291;-72
2022/04/27 08:05:26;;;;;;;16.53;9.53;;;11.90;95.60;;;;;;4994109;28;20219;-72
2022/04/27 08:07:53;;;;;;;13.07;8.90;;;12.30;95.30;;;;;;4991376;28;20204;-72
2022/04/27 08:10:22;;;;;;;16.10;9.00;;;12.30;93.10;;;;;;4991780;28;20237;-72
2022/04/27 08:12:49;;;;;;;16.17;9.17;;;12.30;96.40;;;;;;4991416;28;20283;-72
2022/04/27 08:15:18;;;;;;;12.67;9.60;;;12.30;93.20;;;;;;4991380;28;20571;-72
2022/04/27 08:17:53;;;;;;;16.13;9.03;;;12.30;95.30;;;;;;4991872;28;20263;-72
2022/04/27 08:23:08;;;;;;;13.63;9.80;;;12.50;94.20;;;;;;4991480;28;20718;-72
2022/04/27 08:25:37;;;;;;;15.80;10.00;;;12.60;93.40;;;;;;4991800;28;20212;-72
2022/04/27 08:28:06;;;;;;;17.00;9.90;;;12.60;96.70;;;;;;4991224;28;20590;-72
2022/04/27 08:30:34;;;;;;;14.53;9.27;;;12.60;91.40;;;;;;4991650;28;20207;-72
2022/04/27 08:33:01;;;;;;;14.63;8.80;;;12.70;91.40;;;;;;4991891;28;20225;-72
2022/04/27 08:35:29;;;;;;;15.67;9.17;;;12.90;85.40;;;;;;4991772;28;20233;-72
2022/04/27 08:37:56;;;;;;;16.27;9.67;;;13.00;84.90;;;;;;4992305;28;20206;-72
2022/04/27 08:40:24;;;;;;;12.77;8.50;;;12.90;86.80;;;;;;4992292;28;20255;-72
2022/04/27 08:42:53;;;;;;;12.90;8.70;;;12.90;75.10;;;;;;4991574;28;20252;-73
2022/04/27 08:45:21;;;;;;;15.50;8.50;;;12.90;75.70;;;;;;4991390;28;20660;-72
2022/04/27 08:47:49;;;;;;;16.97;9.43;;;13.10;76.40;;;;;;4992391;28;20213;-72
2022/04/27 08:50:18;;;;;;;13.77;9.17;;;13.20;74.80;;;;;;4992087;28;20296;-72
2022/04/27 08:52:46;;;;;;;15.53;9.27;;;13.50;80.20;;;;;;4991023;28;20324;-72
2022/04/27 08:55:14;;;;;;;15.03;9.40;;;13.80;70.40;;;;;;4991476;28;20212;-72
2022/04/27 08:57:41;;;;;;;14.37;8.83;;;14.10;72.80;;;;;;4991995;28;20201;-72
2022/04/27 09:00:12;;;;;;;15.83;9.17;;;14.40;66.90;;;;;;4992132;28;20205;-72
2022/04/27 09:02:39;;;;;;;15.73;9.20;;;14.70;61.90;;;;;;4992955;28;20212;-72
2022/04/27 09:05:08;;;;;;;12.57;8.47;;;14.80;66.20;;;;;;4995375;28;20228;-72
2022/04/27 09:07:42;;;;;;;12.03;8.97;;;15.00;60.70;;;;;;4995330;28;20651;-72
2022/04/27 09:10:11;;;;;;;13.63;9.27;;;15.20;57.50;;;;;;4995635;28;20247;-72
2022/04/27 09:12:45;;;;;;;14.13;8.63;;;15.30;53.70;;;;;;4994406;28;20232;-72
2022/04/27 09:15:15;;;;;;;12.70;9.10;;;14.40;55.20;;;;;;4976428;28;20288;-72
2022/04/27 09:23:22;;;;;;;14.90;9.37;;;15.10;59.50;;;;;;4994393;28;20645;-72
2022/04/27 09:25:50;;;;;;;13.27;8.93;;;15.30;54.80;;;;;;4994465;28;20201;-72
2022/04/27 09:28:17;;;;;;;16.07;9.80;;;15.70;56.10;;;;;;4995216;28;20299;-72
2022/04/27 09:30:48;;;;;;;13.80;8.10;;;16.00;50.80;;;;;;4994118;28;20520;-72
2022/04/27 09:33:29;;;;;;;16.20;9.60;;;16.40;49.40;;;;;;4994661;28;20569;-72
2022/04/27 09:35:57;;;;;;;12.97;8.90;;;15.90;50.90;;;;;;4993218;28;20575;-73
2022/04/27 09:38:24;;;;;;;15.57;10.13;;;16.10;48.30;;;;;;4994401;28;20216;-73
2022/04/27 09:40:52;;;;;;;12.90;8.52;;;15.80;48.10;;;;;;4995298;28;20538;-73
2022/04/27 09:43:44;;;;;;;14.30;9.38;;;16.20;45.90;;;;;;4994277;28;20291;-72
2022/04/27 09:46:22;;;;;;;13.90;9.52;;;16.60;44.10;;;;;;4994384;28;20239;-72
2022/04/27 09:49:12;;;;;;;13.70;9.60;;;16.30;42.80;;;;;;4994122;28;20240;-72
2022/04/27 09:51:47;;;;;;;13.70;9.32;;;16.20;45.50;;;;;;4993643;28;20221;-72
2022/04/27 09:54:19;;;;;;;14.57;9.40;;;16.30;45.00;;;;;;4994034;28;20211;-72
2022/04/27 09:56:50;;;;;;;14.05;9.45;;;16.30;42.20;;;;;;4994241;28;20197;-72
2022/04/27 09:59:20;;;;;;;13.07;9.23;;;17.10;40.10;;;;;;4994377;28;20224;-72
2022/04/27 10:01:50;;;;;;;13.35;8.77;;;16.40;37.40;;;;;;4993925;28;20256;-72
2022/04/27 10:04:21;;;;;;;12.00;8.43;;;17.20;36.80;;;;;;4993341;28;20207;-73
2022/04/27 10:06:51;;;;;;;11.93;8.68;;;17.40;36.20;;;;;;4993171;28;20205;-73
2022/04/27 10:09:18;;;;;;;14.90;9.10;;;17.60;34.00;;;;;;4993896;28;20205;-73
2022/04/27 10:11:46;;;;;;;15.05;9.65;;;17.00;37.90;;;;;;4993464;28;20205;-73
2022/04/27 10:14:13;;;;;;;14.43;9.75;;;17.30;38.00;;;;;;4993395;28;20288;-73
2022/04/27 10:16:41;;;;;;;11.90;8.80;;;16.90;37.20;;;;;;4993775;28;20605;-73
2022/04/27 10:19:12;;;;;;;13.18;8.93;;;17.40;37.10;;;;;;4994023;28;20197;-73
2022/04/27 10:21:56;;;;;;;14.25;9.23;;;16.80;40.50;;;;;;4993100;28;20252;-73
2022/04/27 10:24:49;;;;;;;11.20;8.45;;;17.50;36.90;;;;;;4993933;28;20209;-73
2022/04/27 10:27:18;;;;;;;12.88;8.77;;;17.70;33.50;;;;;;4993116;28;20209;-73
2022/04/27 10:29:47;;;;;;;12.63;9.25;;;17.60;32.50;;;;;;4993393;28;20629;-72
2022/04/27 10:32:34;;;;;;;12.23;9.38;;;17.70;30.70;;;;;;4993283;28;20727;-72
2022/04/27 10:35:27;;;;;;;15.07;9.35;;;17.30;36.60;;;;;;4993179;28;20205;-72
2022/04/27 10:37:57;;;;;;;11.55;8.32;;;16.70;41.50;;;;;;4993175;28;20216;-72
2022/04/27 10:40:29;;;;;;;14.27;9.25;;;17.60;36.20;;;;;;4994175;28;20213;-72
2022/04/27 10:43:10;;;;;;;12.63;8.63;;;17.70;29.60;;;;;;4993458;28;20576;-72
2022/04/27 10:45:39;;;;;;;15.27;9.48;;;17.40;31.10;;;;;;4993353;28;20197;-72
2022/04/27 10:48:07;;;;;;;12.75;9.02;;;16.50;36.50;;;;;;4993631;28;20199;-73
2022/04/27 10:50:37;;;;;;;12.88;8.82;;;16.20;37.10;;;;;;4993384;28;20649;-72
2022/04/27 10:53:18;;;;;;;13.95;9.18;;;17.00;37.10;;;;;;4993133;28;20331;-72
2022/04/27 10:55:50;;;;;;;11.70;8.20;;;17.40;33.00;;;;;;4992912;28;20292;-72
2022/04/27 10:58:19;;;;;;;11.52;7.95;;;18.20;30.60;;;;;;4992743;28;20876;-72
2022/04/27 11:01:25;;;;;;;15.10;9.05;;;18.20;32.30;;;;;;4992908;28;20232;-72
2022/04/27 11:04:07;;;;;;;12.73;9.10;;;18.00;29.60;;;;;;4993670;28;20209;-72
2022/04/27 11:07:24;;;;;;;13.90;8.15;;;18.00;26.60;;;;;;4991989;28;20208;-72
2022/04/27 11:10:18;;;;;;;11.27;8.45;;;17.80;27.80;;;;;;4993142;28;20196;-72
2022/04/27 11:12:48;;;;;;;18.10;8.80;;;17.70;30.30;;;;;;4992521;28;20258;-72
2022/04/27 11:15:17;;;;;;;12.90;8.68;;;18.20;27.30;;;;;;4992841;28;20259;-72
2022/04/27 11:17:45;;;;;;;10.75;8.45;;;18.20;28.30;;;;;;4992848;28;20279;-73
2022/04/27 11:20:26;;;;;;;13.23;8.50;;;18.50;29.00;;;;;;4992498;28;20263;-73
2022/04/27 11:22:55;;;;;;;11.52;8.25;;;18.30;23.50;;;;;;4992898;28;20603;-72
2022/04/27 11:25:28;;;;;;;9.48;8.15;;;17.20;27.20;;;;;;4990419;28;20583;-72
2022/04/27 11:27:55;;;;;;;11.20;7.60;;;17.60;28.80;;;;;;4993309;28;20209;-73
2022/04/27 11:30:23;;;;;;;9.00;7.30;;;18.40;23.20;;;;;;4992525;28;20201;-73
2022/04/27 11:32:51;;;;;;;13.27;8.23;;;18.50;22.10;;;;;;4992454;28;20225;-73
2022/04/27 11:35:21;;;;;;;15.00;8.13;;;18.50;21.30;;;;;;4992241;28;20232;-73
2022/04/27 11:37:48;;;;;;;8.90;7.82;;;18.20;23.60;;;;;;4992730;28;20223;-73
2022/04/27 11:40:18;;;;;;;10.85;7.97;;;18.40;20.00;;;;;;4996685;28;20217;-73
2022/04/27 11:42:46;;;;;;;10.27;7.50;;;17.80;23.90;;;;;;4995126;28;20243;-73
2022/04/27 11:45:18;;;;;;;11.50;7.45;;;18.60;24.10;;;;;;4992874;28;20623;-73
2022/04/27 11:47:45;;;;;;;11.38;7.60;;;18.10;23.40;;;;;;4986123;28;20634;-73
2022/04/27 11:50:18;;;;;;;10.57;7.60;;;18.30;23.50;;;;;;4990609;28;20472;-72
2022/04/27 11:52:45;;;;;;;9.63;6.93;;;18.20;23.30;;;;;;4991832;28;20228;-72
2022/04/27 11:55:14;;;;;;;10.77;7.10;;;18.20;22.90;;;;;;5000239;28;20200;-72
2022/04/27 11:57:44;;;;;;;11.85;8.15;;;18.80;24.80;;;;;;5006731;28;20203;-73
2022/04/27 12:00:19;;;;;;;9.57;6.97;;;18.30;20.10;;;;;;5011622;28;20239;-72
2022/04/27 12:02:47;;;;;;;11.32;7.85;;;18.80;21.00;;;;;;4995707;28;20251;-72
2022/04/27 12:05:15;;;;;;;9.48;7.13;;;19.00;19.00;;;;;;4992478;28;20259;-72
2022/04/27 12:07:49;;;;;;;11.63;6.55;;;18.20;20.80;;;;;;4992356;28;20251;-72
2022/04/27 12:10:16;;;;;;;11.25;7.90;;;17.80;25.40;;;;;;4992548;28;20205;-72
2022/04/27 12:12:44;;;;;;;10.05;7.43;;;18.70;21.90;;;;;;4991940;28;20225;-72
2022/04/27 12:15:13;;;;;;;10.52;7.43;;;18.60;20.60;;;;;;4992171;28;20724;-73
2022/04/27 12:17:50;;;;;;;10.55;7.30;;;19.10;20.90;;;;;;4991506;28;20201;-71
2022/04/27 12:20:34;;;;;;;11.20;8.52;;;18.90;22.50;;;;;;4991694;28;20237;-71
2022/04/27 12:23:02;;;;;;;11.30;7.55;;;18.80;20.00;;;;;;4989326;28;20197;-71
2022/04/27 12:25:34;;;;;;;10.63;7.38;;;18.70;21.20;;;;;;4991434;28;20229;-71
2022/04/27 12:28:04;;;;;;;10.07;7.57;;;19.20;22.20;;;;;;4989608;28;20237;-71
2022/04/27 12:30:31;;;;;;;11.75;7.78;;;18.90;20.60;;;;;;4992128;28;20205;-71
2022/04/27 12:32:59;;;;;;;9.60;7.72;;;18.80;20.50;;;;;;4991767;28;20633;-71
2022/04/27 12:38:20;;;;;;;9.35;6.75;;;18.90;19.60;;;;;;5015509;28;20335;-71
2022/04/27 12:40:48;;;;;;;9.98;7.47;;;19.50;19.20;;;;;;5013074;28;20209;-71
2022/04/27 12:43:21;;;;;;;13.15;8.15;;;18.90;17.40;;;;;;5005915;28;20218;-71
2022/04/27 12:46:11;;;;;;;10.65;7.22;;;18.30;17.20;;;;;;5014145;28;20212;-71
2022/04/27 12:48:39;;;;;;;10.07;7.30;;;19.10;18.20;;;;;;4994646;28;20601;-71
2022/04/27 12:51:08;;;;;;;9.20;6.95;;;19.10;14.70;;;;;;5003136;28;20216;-71
2022/04/27 12:53:36;;;;;;;11.10;7.05;;;18.50;19.10;;;;;;4995947;28;20299;-71
2022/04/27 12:56:17;;;;;;;9.77;7.32;;;19.30;17.80;;;;;;4996646;28;20552;-71
2022/04/27 12:59:03;;;;;;;12.30;7.53;;;19.80;16.80;;;;;;5013962;28;20697;-71
2022/04/27 13:01:30;;;;;;;11.15;7.72;;;19.40;16.60;;;;;;4997899;28;20612;-71
2022/04/27 13:03:58;;;;;;;10.73;7.63;;;19.10;18.90;;;;;;4997319;28;20236;-71
2022/04/27 13:06:25;;;;;;;12.80;8.10;;;18.90;17.10;;;;;;4975662;28;20202;-71
2022/04/27 13:08:52;;;;;;;11.45;7.18;;;18.80;20.40;;;;;;5001900;28;20597;-71
2022/04/27 13:14:05;;;;;;;11.93;7.78;;;19.70;17.40;;;;;;4989726;28;20236;-71
2022/04/27 13:16:32;;;;;;;9.68;7.43;;;19.00;16.90;;;;;;4995200;28;20566;-71
2022/04/27 13:18:59;;;;;;;8.27;7.30;;;17.80;20.10;;;;;;4996462;28;20205;-71